sensor_id;sensor_type;location;lat;lon;timestamp;pressure;altitude;pressure_sealevel;temperature;humidity
21566;BME280;10943;48.738;9.320;2022-10-10T00:01:35;98946.47;;;13.95;63.15
21566;BME280;10943;48.738;9.320;2022-10-10T00:04:04;98936.75;;;13.98;63.50
21566;BME280;10943;48.738;9.320;2022-10-10T00:06:32;98942.97;;;14.05;63.38
21566;BME280;10943;48.738;9.320;2022-10-10T00:09:01;98935.97;;;14.02;63.31
21566;BME280;10943;48.738;9.320;2022-10-10T00:11:30;98939.88;;;14.01;62.51
21566;BME280;10943;48.738;9.320;2022-10-10T00:13:57;98937.34;;;14.00;63.40
21566;BME280;10943;48.738;9.320;2022-10-10T00:16:25;98940.75;;;14.07;63.17
21566;BME280;10943;48.738;9.320;2022-10-10T00:18:52;98933.06;;;13.92;63.68
21566;BME280;10943;48.738;9.320;2022-10-10T00:21:20;98931.75;;;14.00;63.75
21566;BME280;10943;48.738;9.320;2022-10-10T00:23:47;98944.22;;;14.19;63.17
21566;BME280;10943;48.738;9.320;2022-10-10T00:26:14;98935.66;;;14.26;62.84
21566;BME280;10943;48.738;9.320;2022-10-10T00:28:46;98932.91;;;14.04;63.83
21566;BME280;10943;48.738;9.320;2022-10-10T00:31:14;98927.72;;;13.91;63.98
21566;BME280;10943;48.738;9.320;2022-10-10T00:33:41;98933.19;;;14.02;64.07
21566;BME280;10943;48.738;9.320;2022-10-10T00:36:09;98932.50;;;14.17;63.28
21566;BME280;10943;48.738;9.320;2022-10-10T00:38:36;98934.91;;;14.09;63.65
21566;BME280;10943;48.738;9.320;2022-10-10T00:41:04;98924.34;;;14.11;63.64
21566;BME280;10943;48.738;9.320;2022-10-10T00:43:32;98920.28;;;13.96;63.62
21566;BME280;10943;48.738;9.320;2022-10-10T00:46:00;98921.38;;;13.95;63.68
21566;BME280;10943;48.738;9.320;2022-10-10T00:48:38;98922.28;;;14.01;63.30
21566;BME280;10943;48.738;9.320;2022-10-10T00:51:14;98917.88;;;14.05;63.41
21566;BME280;10943;48.738;9.320;2022-10-10T00:53:50;98916.75;;;14.06;63.09
21566;BME280;10943;48.738;9.320;2022-10-10T00:56:26;98912.81;;;14.02;63.70
21566;BME280;10943;48.738;9.320;2022-10-10T00:58:59;98911.44;;;14.05;63.74
21566;BME280;10943;48.738;9.320;2022-10-10T01:01:30;98914.94;;;14.17;63.42
21566;BME280;10943;48.738;9.320;2022-10-10T01:04:00;98912.66;;;14.14;63.38
21566;BME280;10943;48.738;9.320;2022-10-10T01:06:29;98916.63;;;14.18;62.58
21566;BME280;10943;48.738;9.320;2022-10-10T01:08:57;98919.75;;;14.27;62.42
21566;BME280;10943;48.738;9.320;2022-10-10T01:11:59;98902.03;;;14.11;62.83
21566;BME280;10943;48.738;9.320;2022-10-10T01:15:19;98905.66;;;14.11;62.97
21566;BME280;10943;48.738;9.320;2022-10-10T01:18:23;98903.56;;;13.96;63.91
21566;BME280;10943;48.738;9.320;2022-10-10T01:21:40;98907.56;;;14.06;63.70
21566;BME280;10943;48.738;9.320;2022-10-10T01:24:25;98891.44;;;14.08;63.03
21566;BME280;10943;48.738;9.320;2022-10-10T01:27:24;98900.78;;;13.96;63.33
21566;BME280;10943;48.738;9.320;2022-10-10T01:30:12;98890.84;;;14.06;63.35
21566;BME280;10943;48.738;9.320;2022-10-10T01:33:10;98888.47;;;13.92;63.88
21566;BME280;10943;48.738;9.320;2022-10-10T01:35:58;98888.22;;;13.94;63.93
21566;BME280;10943;48.738;9.320;2022-10-10T01:39:25;98892.56;;;14.12;62.11
21566;BME280;10943;48.738;9.320;2022-10-10T01:42:17;98893.88;;;14.31;62.45
21566;BME280;10943;48.738;9.320;2022-10-10T01:44:49;98884.03;;;14.24;62.83
21566;BME280;10943;48.738;9.320;2022-10-10T01:47:21;98886.94;;;14.34;62.53
21566;BME280;10943;48.738;9.320;2022-10-10T01:49:53;98888.09;;;14.11;63.14
21566;BME280;10943;48.738;9.320;2022-10-10T01:55:34;98881.16;;;14.13;63.11
21566;BME280;10943;48.738;9.320;2022-10-10T02:05:53;98881.66;;;14.05;63.48
21566;BME280;10943;48.738;9.320;2022-10-10T02:08:35;98872.41;;;14.05;63.43
21566;BME280;10943;48.738;9.320;2022-10-10T02:14:55;98880.41;;;13.96;63.70
21566;BME280;10943;48.738;9.320;2022-10-10T02:28:47;98875.56;;;13.59;65.52
21566;BME280;10943;48.738;9.320;2022-10-10T02:46:12;98884.50;;;12.99;67.87
21566;BME280;10943;48.738;9.320;2022-10-10T02:52:23;98886.13;;;13.57;66.50
21566;BME280;10943;48.738;9.320;2022-10-10T02:54:50;98883.31;;;13.34;66.86
21566;BME280;10943;48.738;9.320;2022-10-10T03:01:01;98877.66;;;13.74;65.95
21566;BME280;10943;48.738;9.320;2022-10-10T03:03:28;98876.22;;;14.21;64.11
21566;BME280;10943;48.738;9.320;2022-10-10T03:05:55;98873.72;;;14.57;62.66
21566;BME280;10943;48.738;9.320;2022-10-10T03:08:23;98872.00;;;13.91;64.70
21566;BME280;10943;48.738;9.320;2022-10-10T03:11:00;98875.38;;;13.93;65.15
21566;BME280;10943;48.738;9.320;2022-10-10T03:17:10;98881.28;;;13.96;64.95
21566;BME280;10943;48.738;9.320;2022-10-10T03:27:03;98875.47;;;13.76;65.42
21566;BME280;10943;48.738;9.320;2022-10-10T03:29:31;98881.00;;;13.70;65.69
21566;BME280;10943;48.738;9.320;2022-10-10T03:31:58;98876.63;;;13.80;65.63
21566;BME280;10943;48.738;9.320;2022-10-10T03:34:25;98874.94;;;13.79;65.43
21566;BME280;10943;48.738;9.320;2022-10-10T03:36:53;98880.41;;;13.68;65.91
21566;BME280;10943;48.738;9.320;2022-10-10T03:39:20;98873.06;;;13.84;65.11
21566;BME280;10943;48.738;9.320;2022-10-10T03:41:47;98870.69;;;13.98;64.77
21566;BME280;10943;48.738;9.320;2022-10-10T03:44:16;98870.63;;;13.93;64.72
21566;BME280;10943;48.738;9.320;2022-10-10T03:46:43;98874.06;;;13.73;65.07
21566;BME280;10943;48.738;9.320;2022-10-10T03:49:11;98873.22;;;13.73;64.99
21566;BME280;10943;48.738;9.320;2022-10-10T03:51:38;98878.97;;;13.66;65.74
21566;BME280;10943;48.738;9.320;2022-10-10T03:54:05;98883.25;;;13.74;65.43
21566;BME280;10943;48.738;9.320;2022-10-10T03:56:33;98875.91;;;13.62;65.88
21566;BME280;10943;48.738;9.320;2022-10-10T03:59:00;98871.22;;;13.68;65.61
21566;BME280;10943;48.738;9.320;2022-10-10T04:01:30;98866.41;;;13.91;64.87
21566;BME280;10943;48.738;9.320;2022-10-10T04:03:57;98875.84;;;13.84;65.23
21566;BME280;10943;48.738;9.320;2022-10-10T04:06:24;98870.00;;;13.86;65.13
21566;BME280;10943;48.738;9.320;2022-10-10T04:08:51;98874.94;;;13.79;65.27
21566;BME280;10943;48.738;9.320;2022-10-10T04:11:19;98878.84;;;13.78;65.36
21566;BME280;10943;48.738;9.320;2022-10-10T04:13:46;98883.13;;;13.91;64.94
21566;BME280;10943;48.738;9.320;2022-10-10T04:16:13;98870.59;;;14.15;64.31
21566;BME280;10943;48.738;9.320;2022-10-10T04:18:46;98865.84;;;13.89;64.41
21566;BME280;10943;48.738;9.320;2022-10-10T04:21:13;98873.72;;;13.69;65.62
21566;BME280;10943;48.738;9.320;2022-10-10T04:23:41;98879.91;;;13.72;65.38
21566;BME280;10943;48.738;9.320;2022-10-10T04:26:08;98875.25;;;13.55;65.61
21566;BME280;10943;48.738;9.320;2022-10-10T04:28:35;98864.69;;;13.57;65.85
21566;BME280;10943;48.738;9.320;2022-10-10T04:31:03;98870.38;;;13.45;66.10
21566;BME280;10943;48.738;9.320;2022-10-10T04:33:30;98869.72;;;13.60;66.15
21566;BME280;10943;48.738;9.320;2022-10-10T04:35:57;98861.38;;;13.60;65.82
21566;BME280;10943;48.738;9.320;2022-10-10T04:38:25;98868.03;;;13.59;66.09
21566;BME280;10943;48.738;9.320;2022-10-10T04:40:52;98872.09;;;13.74;65.60
21566;BME280;10943;48.738;9.320;2022-10-10T04:43:19;98867.47;;;13.57;66.26
21566;BME280;10943;48.738;9.320;2022-10-10T04:45:46;98864.44;;;13.86;65.20
21566;BME280;10943;48.738;9.320;2022-10-10T04:48:13;98868.44;;;13.95;64.92
21566;BME280;10943;48.738;9.320;2022-10-10T04:50:41;98869.91;;;13.76;65.43
21566;BME280;10943;48.738;9.320;2022-10-10T04:53:08;98872.25;;;13.40;66.54
21566;BME280;10943;48.738;9.320;2022-10-10T04:55:35;98874.69;;;13.36;66.93
21566;BME280;10943;48.738;9.320;2022-10-10T04:58:03;98865.19;;;13.32;66.91
21566;BME280;10943;48.738;9.320;2022-10-10T05:00:30;98874.50;;;13.43;66.96
21566;BME280;10943;48.738;9.320;2022-10-10T05:02:57;98872.72;;;13.53;66.38
21566;BME280;10943;48.738;9.320;2022-10-10T05:05:24;98870.00;;;13.36;66.71
21566;BME280;10943;48.738;9.320;2022-10-10T05:07:52;98873.34;;;13.39;67.02
21566;BME280;10943;48.738;9.320;2022-10-10T05:10:23;98872.38;;;13.50;66.51
21566;BME280;10943;48.738;9.320;2022-10-10T05:12:51;98863.56;;;13.36;66.88
21566;BME280;10943;48.738;9.320;2022-10-10T05:15:19;98862.06;;;13.28;67.25
21566;BME280;10943;48.738;9.320;2022-10-10T05:17:47;98866.78;;;13.06;68.11
21566;BME280;10943;48.738;9.320;2022-10-10T05:20:15;98860.88;;;13.02;68.40
21566;BME280;10943;48.738;9.320;2022-10-10T05:22:42;98871.34;;;13.12;67.97
21566;BME280;10943;48.738;9.320;2022-10-10T05:25:09;98873.38;;;13.21;67.58
21566;BME280;10943;48.738;9.320;2022-10-10T05:27:37;98875.34;;;13.21;67.71
21566;BME280;10943;48.738;9.320;2022-10-10T05:30:05;98871.34;;;13.12;68.28
21566;BME280;10943;48.738;9.320;2022-10-10T05:32:32;98876.03;;;13.33;67.33
21566;BME280;10943;48.738;9.320;2022-10-10T05:35:01;98875.91;;;13.23;67.58
21566;BME280;10943;48.738;9.320;2022-10-10T05:37:31;98879.97;;;13.32;67.50
21566;BME280;10943;48.738;9.320;2022-10-10T05:39:58;98888.88;;;13.12;68.06
21566;BME280;10943;48.738;9.320;2022-10-10T05:42:29;98878.75;;;13.06;68.17
21566;BME280;10943;48.738;9.320;2022-10-10T05:44:58;98878.06;;;13.16;68.21
21566;BME280;10943;48.738;9.320;2022-10-10T05:47:26;98880.19;;;13.09;68.44
21566;BME280;10943;48.738;9.320;2022-10-10T05:49:54;98881.50;;;13.45;67.32
21566;BME280;10943;48.738;9.320;2022-10-10T05:52:21;98893.56;;;13.51;66.82
21566;BME280;10943;48.738;9.320;2022-10-10T05:54:48;98894.75;;;13.55;66.55
21566;BME280;10943;48.738;9.320;2022-10-10T05:57:15;98892.06;;;13.65;66.28
21566;BME280;10943;48.738;9.320;2022-10-10T05:59:43;98904.44;;;13.52;66.64
21566;BME280;10943;48.738;9.320;2022-10-10T06:02:12;98897.00;;;13.58;66.63
21566;BME280;10943;48.738;9.320;2022-10-10T06:04:40;98904.13;;;13.49;66.70
21566;BME280;10943;48.738;9.320;2022-10-10T06:07:07;98900.84;;;14.01;65.18
21566;BME280;10943;48.738;9.320;2022-10-10T06:09:35;98895.41;;;13.62;66.38
21566;BME280;10943;48.738;9.320;2022-10-10T06:12:02;98894.22;;;13.80;66.09
21566;BME280;10943;48.738;9.320;2022-10-10T06:14:29;98890.88;;;14.11;65.01
21566;BME280;10943;48.738;9.320;2022-10-10T06:16:57;98897.22;;;14.33;64.71
21566;BME280;10943;48.738;9.320;2022-10-10T06:19:24;98913.19;;;14.71;63.14
21566;BME280;10943;48.738;9.320;2022-10-10T06:21:51;98900.97;;;14.77;63.15
21566;BME280;10943;48.738;9.320;2022-10-10T06:24:18;98923.50;;;15.02;61.88
21566;BME280;10943;48.738;9.320;2022-10-10T06:26:46;98915.56;;;14.89;62.90
21566;BME280;10943;48.738;9.320;2022-10-10T06:29:13;98912.03;;;15.04;61.80
21566;BME280;10943;48.738;9.320;2022-10-10T06:31:40;98912.81;;;14.94;62.33
21566;BME280;10943;48.738;9.320;2022-10-10T06:34:07;98917.25;;;15.38;60.96
21566;BME280;10943;48.738;9.320;2022-10-10T06:36:35;98918.66;;;15.41;60.32
21566;BME280;10943;48.738;9.320;2022-10-10T06:39:02;98919.38;;;15.74;60.06
21566;BME280;10943;48.738;9.320;2022-10-10T06:41:30;98916.09;;;15.82;59.35
21566;BME280;10943;48.738;9.320;2022-10-10T06:51:23;98938.81;;;16.06;58.06
21566;BME280;10943;48.738;9.320;2022-10-10T06:57:35;98937.50;;;16.76;56.34
21566;BME280;10943;48.738;9.320;2022-10-10T07:03:46;98947.59;;;17.03;55.93
21566;BME280;10943;48.738;9.320;2022-10-10T07:13:39;98940.50;;;17.52;54.22
21566;BME280;10943;48.738;9.320;2022-10-10T07:23:32;98954.28;;;18.13;53.25
21566;BME280;10943;48.738;9.320;2022-10-10T07:33:30;98967.56;;;18.47;52.39
21566;BME280;10943;48.738;9.320;2022-10-10T07:40:04;98966.09;;;19.78;49.41
21566;BME280;10943;48.738;9.320;2022-10-10T07:42:32;98970.09;;;19.72;48.90
21566;BME280;10943;48.738;9.320;2022-10-10T07:44:59;98972.56;;;19.54;49.77
21566;BME280;10943;48.738;9.320;2022-10-10T07:47:27;98980.84;;;19.94;49.29
21566;BME280;10943;48.738;9.320;2022-10-10T07:49:55;98979.41;;;20.59;47.44
21566;BME280;10943;48.738;9.320;2022-10-10T07:52:28;98978.59;;;21.43;44.98
21566;BME280;10943;48.738;9.320;2022-10-10T07:54:56;98986.50;;;21.74;44.03
21566;BME280;10943;48.738;9.320;2022-10-10T07:57:30;98976.50;;;22.61;42.69
21566;BME280;10943;48.738;9.320;2022-10-10T08:00:05;98976.81;;;22.59;42.02
21566;BME280;10943;48.738;9.320;2022-10-10T08:02:40;98980.31;;;22.14;43.64
21566;BME280;10943;48.738;9.320;2022-10-10T08:05:08;98983.78;;;22.11;43.54
21566;BME280;10943;48.738;9.320;2022-10-10T08:07:36;98986.47;;;20.94;45.51
21566;BME280;10943;48.738;9.320;2022-10-10T08:10:04;98988.06;;;20.24;47.63
21566;BME280;10943;48.738;9.320;2022-10-10T08:12:32;98992.78;;;19.81;48.70
21566;BME280;10943;48.738;9.320;2022-10-10T08:15:00;98995.25;;;19.87;48.79
21566;BME280;10943;48.738;9.320;2022-10-10T08:17:28;98989.53;;;19.44;49.90
21566;BME280;10943;48.738;9.320;2022-10-10T08:19:55;98989.16;;;19.80;49.13
21566;BME280;10943;48.738;9.320;2022-10-10T08:22:23;98991.13;;;19.55;49.98
21566;BME280;10943;48.738;9.320;2022-10-10T08:24:51;98992.88;;;20.00;48.99
21566;BME280;10943;48.738;9.320;2022-10-10T08:27:18;98992.91;;;20.81;47.11
21566;BME280;10943;48.738;9.320;2022-10-10T08:29:46;98991.72;;;21.01;46.38
21566;BME280;10943;48.738;9.320;2022-10-10T08:32:14;98987.44;;;21.04;46.58
21566;BME280;10943;48.738;9.320;2022-10-10T08:34:42;98991.94;;;21.05;46.67
21566;BME280;10943;48.738;9.320;2022-10-10T08:37:12;98990.53;;;20.88;47.07
21566;BME280;10943;48.738;9.320;2022-10-10T08:39:39;98992.19;;;21.08;46.85
21566;BME280;10943;48.738;9.320;2022-10-10T08:42:33;98989.59;;;21.73;45.69
21566;BME280;10943;48.738;9.320;2022-10-10T08:45:18;98979.06;;;22.20;44.17
21566;BME280;10943;48.738;9.320;2022-10-10T08:47:54;98977.81;;;22.77;43.27
21566;BME280;10943;48.738;9.320;2022-10-10T08:50:56;98982.13;;;23.43;41.88
21566;BME280;10943;48.738;9.320;2022-10-10T08:53:53;98972.94;;;22.91;42.68
21566;BME280;10943;48.738;9.320;2022-10-10T08:56:30;98973.72;;;22.33;44.07
21566;BME280;10943;48.738;9.320;2022-10-10T08:59:14;98975.41;;;22.20;44.25
21566;BME280;10943;48.738;9.320;2022-10-10T09:02:34;98976.84;;;22.82;43.57
21566;BME280;10943;48.738;9.320;2022-10-10T09:09:35;98975.72;;;21.90;45.17
21566;BME280;10943;48.738;9.320;2022-10-10T09:16:04;98980.31;;;21.72;46.06
21566;BME280;10943;48.738;9.320;2022-10-10T09:22:02;98984.25;;;23.14;43.38
21566;BME280;10943;48.738;9.320;2022-10-10T09:24:56;98978.22;;;23.61;41.70
21566;BME280;10943;48.738;9.320;2022-10-10T09:27:36;98993.34;;;23.56;41.87
21566;BME280;10943;48.738;9.320;2022-10-10T09:30:16;98991.13;;;22.99;42.78
21566;BME280;10943;48.738;9.320;2022-10-10T09:32:54;99000.34;;;23.28;42.56
21566;BME280;10943;48.738;9.320;2022-10-10T09:35:33;98999.03;;;23.11;42.84
21566;BME280;10943;48.738;9.320;2022-10-10T09:41:21;99005.91;;;24.04;40.99
21566;BME280;10943;48.738;9.320;2022-10-10T09:44:28;99010.19;;;23.62;41.65
21566;BME280;10943;48.738;9.320;2022-10-10T09:46:58;99002.47;;;22.85;43.56
21566;BME280;10943;48.738;9.320;2022-10-10T09:49:28;99009.16;;;22.53;44.35
21566;BME280;10943;48.738;9.320;2022-10-10T09:51:57;99006.31;;;22.67;44.35
21566;BME280;10943;48.738;9.320;2022-10-10T09:54:24;99005.31;;;23.08;43.44
21566;BME280;10943;48.738;9.320;2022-10-10T09:56:56;99014.97;;;23.52;42.98
21566;BME280;10943;48.738;9.320;2022-10-10T09:59:42;99018.28;;;25.19;39.67
21566;BME280;10943;48.738;9.320;2022-10-10T10:02:24;99007.31;;;25.82;38.04
21566;BME280;10943;48.738;9.320;2022-10-10T10:04:53;99008.50;;;25.73;38.17
21566;BME280;10943;48.738;9.320;2022-10-10T10:07:28;99011.25;;;25.25;39.19
21566;BME280;10943;48.738;9.320;2022-10-10T10:10:10;99001.84;;;27.52;35.84
21566;BME280;10943;48.738;9.320;2022-10-10T10:12:45;99010.28;;;30.26;31.11
21566;BME280;10943;48.738;9.320;2022-10-10T10:15:28;99010.75;;;31.35;29.36
21566;BME280;10943;48.738;9.320;2022-10-10T10:20:53;99012.63;;;28.91;32.35
21566;BME280;10943;48.738;9.320;2022-10-10T10:24:01;99009.78;;;28.54;33.26
21566;BME280;10943;48.738;9.320;2022-10-10T10:26:47;99005.91;;;27.08;35.83
21566;BME280;10943;48.738;9.320;2022-10-10T10:29:29;98997.03;;;26.67;36.65
21566;BME280;10943;48.738;9.320;2022-10-10T11:21:20;98983.59;;;30.38;31.61
21566;BME280;10943;48.738;9.320;2022-10-10T11:30:54;98960.81;;;32.02;29.53
21566;BME280;10943;48.738;9.320;2022-10-10T11:33:33;98961.91;;;32.40;28.36
21566;BME280;10943;48.738;9.320;2022-10-10T11:51:13;98958.66;;;33.70;26.85
21566;BME280;10943;48.738;9.320;2022-10-10T11:54:01;98946.13;;;33.89;26.85
21566;BME280;10943;48.738;9.320;2022-10-10T12:41:17;98909.56;;;37.67;20.46
21566;BME280;10943;48.738;9.320;2022-10-10T12:50:59;98914.75;;;37.27;19.51
21566;BME280;10943;48.738;9.320;2022-10-10T12:53:31;98914.66;;;37.48;19.33
21566;BME280;10943;48.738;9.320;2022-10-10T13:14:41;98885.78;;;35.69;22.45
21566;BME280;10943;48.738;9.320;2022-10-10T13:20:56;98885.31;;;35.46;22.70
21566;BME280;10943;48.738;9.320;2022-10-10T13:35:06;98872.53;;;34.33;23.48
21566;BME280;10943;48.738;9.320;2022-10-10T13:37:41;98878.78;;;34.53;22.74
21566;BME280;10943;48.738;9.320;2022-10-10T13:40:15;98875.13;;;34.57;22.59
21566;BME280;10943;48.738;9.320;2022-10-10T13:42:46;98867.00;;;34.80;22.22
21566;BME280;10943;48.738;9.320;2022-10-10T13:45:37;98863.44;;;35.12;21.98
21566;BME280;10943;48.738;9.320;2022-10-10T13:48:18;98869.84;;;34.07;24.50
21566;BME280;10943;48.738;9.320;2022-10-10T13:51:08;98869.81;;;32.22;25.19
21566;BME280;10943;48.738;9.320;2022-10-10T13:53:48;98875.84;;;30.81;26.84
21566;BME280;10943;48.738;9.320;2022-10-10T13:56:30;98869.63;;;30.56;27.50
21566;BME280;10943;48.738;9.320;2022-10-10T13:59:11;98864.28;;;30.38;28.38
21566;BME280;10943;48.738;9.320;2022-10-10T14:01:46;98871.59;;;30.71;27.95
21566;BME280;10943;48.738;9.320;2022-10-10T14:04:33;98868.41;;;30.76;28.33
21566;BME280;10943;48.738;9.320;2022-10-10T14:07:22;98870.66;;;29.80;29.59
21566;BME280;10943;48.738;9.320;2022-10-10T14:10:05;98868.03;;;28.67;32.05
21566;BME280;10943;48.738;9.320;2022-10-10T14:12:37;98882.50;;;27.96;33.32
21566;BME280;10943;48.738;9.320;2022-10-10T14:18:20;98875.66;;;28.50;32.41
21566;BME280;10943;48.738;9.320;2022-10-10T14:20:50;98882.84;;;28.72;32.02
21566;BME280;10943;48.738;9.320;2022-10-10T14:23:19;98878.84;;;28.89;31.03
21566;BME280;10943;48.738;9.320;2022-10-10T14:25:48;98873.56;;;28.75;31.86
21566;BME280;10943;48.738;9.320;2022-10-10T14:28:28;98884.06;;;28.06;33.00
21566;BME280;10943;48.738;9.320;2022-10-10T14:30:57;98878.22;;;27.90;33.60
21566;BME280;10943;48.738;9.320;2022-10-10T14:33:26;98884.19;;;27.85;33.33
21566;BME280;10943;48.738;9.320;2022-10-10T14:35:54;98878.94;;;27.49;33.99
21566;BME280;10943;48.738;9.320;2022-10-10T14:38:22;98882.31;;;27.18;34.94
21566;BME280;10943;48.738;9.320;2022-10-10T14:40:51;98875.22;;;26.69;36.03
21566;BME280;10943;48.738;9.320;2022-10-10T14:43:20;98874.84;;;26.38;36.73
21566;BME280;10943;48.738;9.320;2022-10-10T14:45:51;98881.75;;;26.07;37.27
21566;BME280;10943;48.738;9.320;2022-10-10T14:48:19;98884.22;;;25.78;37.69
21566;BME280;10943;48.738;9.320;2022-10-10T14:50:47;98873.84;;;25.44;38.20
21566;BME280;10943;48.738;9.320;2022-10-10T14:53:17;98881.56;;;25.26;38.83
21566;BME280;10943;48.738;9.320;2022-10-10T14:55:45;98885.28;;;25.09;39.47
21566;BME280;10943;48.738;9.320;2022-10-10T14:58:17;98894.50;;;24.97;39.89
21566;BME280;10943;48.738;9.320;2022-10-10T15:00:49;98892.31;;;25.02;39.71
21566;BME280;10943;48.738;9.320;2022-10-10T15:03:17;98885.28;;;25.17;39.59
21566;BME280;10943;48.738;9.320;2022-10-10T15:05:45;98892.09;;;25.25;39.38
21566;BME280;10943;48.738;9.320;2022-10-10T15:08:16;98895.28;;;25.15;39.74
21566;BME280;10943;48.738;9.320;2022-10-10T15:10:45;98889.59;;;25.24;39.41
21566;BME280;10943;48.738;9.320;2022-10-10T15:13:14;98887.78;;;25.10;39.67
21566;BME280;10943;48.738;9.320;2022-10-10T15:15:47;98896.63;;;25.17;39.41
21566;BME280;10943;48.738;9.320;2022-10-10T15:18:16;98896.09;;;25.42;39.05
21566;BME280;10943;48.738;9.320;2022-10-10T15:21:09;98902.81;;;25.67;38.93
21566;BME280;10943;48.738;9.320;2022-10-10T15:23:38;98904.75;;;25.75;38.38
21566;BME280;10943;48.738;9.320;2022-10-10T15:26:06;98893.41;;;25.75;38.46
21566;BME280;10943;48.738;9.320;2022-10-10T15:28:34;98908.66;;;25.70;38.54
21566;BME280;10943;48.738;9.320;2022-10-10T15:31:01;98907.66;;;25.66;38.72
21566;BME280;10943;48.738;9.320;2022-10-10T15:33:31;98903.28;;;25.39;38.71
21566;BME280;10943;48.738;9.320;2022-10-10T15:36:01;98910.09;;;25.47;38.70
21566;BME280;10943;48.738;9.320;2022-10-10T15:38:36;98911.25;;;25.46;38.62
21566;BME280;10943;48.738;9.320;2022-10-10T15:41:08;98912.50;;;25.66;38.37
21566;BME280;10943;48.738;9.320;2022-10-10T15:43:49;98916.66;;;25.68;38.07
21566;BME280;10943;48.738;9.320;2022-10-10T15:46:26;98929.84;;;25.73;37.93
21566;BME280;10943;48.738;9.320;2022-10-10T15:49:00;98922.75;;;25.88;37.86
21566;BME280;10943;48.738;9.320;2022-10-10T15:51:33;98931.22;;;26.06;37.09
21566;BME280;10943;48.738;9.320;2022-10-10T15:54:02;98932.19;;;25.71;37.68
21566;BME280;10943;48.738;9.320;2022-10-10T15:56:29;98925.22;;;25.60;38.18
21566;BME280;10943;48.738;9.320;2022-10-10T15:59:00;98932.81;;;25.38;38.85
21566;BME280;10943;48.738;9.320;2022-10-10T16:01:29;98940.63;;;25.41;38.87
21566;BME280;10943;48.738;9.320;2022-10-10T16:03:57;98926.63;;;25.36;39.06
21566;BME280;10943;48.738;9.320;2022-10-10T16:06:25;98937.66;;;25.29;39.39
21566;BME280;10943;48.738;9.320;2022-10-10T16:08:53;98937.84;;;25.24;39.78
21566;BME280;10943;48.738;9.320;2022-10-10T16:11:41;98928.97;;;25.34;40.28
21566;BME280;10943;48.738;9.320;2022-10-10T16:14:09;98929.84;;;25.08;41.49
21566;BME280;10943;48.738;9.320;2022-10-10T16:16:37;98930.31;;;25.19;41.46
21566;BME280;10943;48.738;9.320;2022-10-10T16:19:05;98942.19;;;25.03;41.07
21566;BME280;10943;48.738;9.320;2022-10-10T16:21:33;98936.03;;;24.93;41.70
21566;BME280;10943;48.738;9.320;2022-10-10T16:24:00;98933.00;;;24.45;42.89
21566;BME280;10943;48.738;9.320;2022-10-10T16:26:31;98937.34;;;24.34;42.98
21566;BME280;10943;48.738;9.320;2022-10-10T16:29:01;98936.31;;;24.12;43.49
21566;BME280;10943;48.738;9.320;2022-10-10T16:31:31;98940.25;;;23.94;43.90
21566;BME280;10943;48.738;9.320;2022-10-10T16:34:03;98951.47;;;23.76;44.98
21566;BME280;10943;48.738;9.320;2022-10-10T16:36:34;98945.56;;;23.55;46.16
21566;BME280;10943;48.738;9.320;2022-10-10T16:39:03;98957.78;;;23.33;46.79
21566;BME280;10943;48.738;9.320;2022-10-10T16:41:32;98960.97;;;22.95;47.67
21566;BME280;10943;48.738;9.320;2022-10-10T16:44:15;98961.03;;;22.81;48.61
21566;BME280;10943;48.738;9.320;2022-10-10T16:46:43;98966.97;;;22.56;49.15
21566;BME280;10943;48.738;9.320;2022-10-10T16:49:12;98963.50;;;22.60;49.06
21566;BME280;10943;48.738;9.320;2022-10-10T16:51:43;98962.81;;;22.54;48.30
21566;BME280;10943;48.738;9.320;2022-10-10T16:54:10;98963.34;;;22.28;49.61
21566;BME280;10943;48.738;9.320;2022-10-10T16:56:40;98971.50;;;22.30;49.87
21566;BME280;10943;48.738;9.320;2022-10-10T16:59:11;98967.44;;;22.08;50.16
21566;BME280;10943;48.738;9.320;2022-10-10T17:01:38;98976.03;;;22.03;50.06
21566;BME280;10943;48.738;9.320;2022-10-10T17:04:06;98969.34;;;21.99;50.80
21566;BME280;10943;48.738;9.320;2022-10-10T17:06:34;98962.13;;;22.06;50.83
21566;BME280;10943;48.738;9.320;2022-10-10T17:09:07;98966.63;;;22.07;50.23
21566;BME280;10943;48.738;9.320;2022-10-10T17:11:37;98978.22;;;21.78;51.14
21566;BME280;10943;48.738;9.320;2022-10-10T17:14:05;98983.28;;;21.48;51.87
21566;BME280;10943;48.738;9.320;2022-10-10T17:16:32;98976.66;;;21.25;52.43
21566;BME280;10943;48.738;9.320;2022-10-10T17:19:20;98983.38;;;21.29;52.58
21566;BME280;10943;48.738;9.320;2022-10-10T17:21:47;98978.88;;;21.28;52.30
21566;BME280;10943;48.738;9.320;2022-10-10T17:24:15;98983.88;;;21.31;52.63
21566;BME280;10943;48.738;9.320;2022-10-10T17:26:43;98986.13;;;21.15;52.84
21566;BME280;10943;48.738;9.320;2022-10-10T17:29:14;98994.84;;;21.00;53.28
21566;BME280;10943;48.738;9.320;2022-10-10T17:31:42;98993.19;;;20.99;53.17
21566;BME280;10943;48.738;9.320;2022-10-10T17:34:09;98989.09;;;21.24;52.31
21566;BME280;10943;48.738;9.320;2022-10-10T17:36:37;99000.50;;;21.00;52.84
21566;BME280;10943;48.738;9.320;2022-10-10T17:39:04;99001.72;;;20.55;53.87
21566;BME280;10943;48.738;9.320;2022-10-10T17:41:33;99007.25;;;20.41;54.74
21566;BME280;10943;48.738;9.320;2022-10-10T17:44:02;99004.34;;;20.27;55.25
21566;BME280;10943;48.738;9.320;2022-10-10T17:46:31;99013.84;;;20.32;55.30
21566;BME280;10943;48.738;9.320;2022-10-10T17:49:10;99022.69;;;20.44;54.79
21566;BME280;10943;48.738;9.320;2022-10-10T17:51:40;99016.22;;;20.24;55.48
21566;BME280;10943;48.738;9.320;2022-10-10T17:54:08;99016.22;;;20.24;55.87
21566;BME280;10943;48.738;9.320;2022-10-10T17:56:36;99016.81;;;20.21;55.87
21566;BME280;10943;48.738;9.320;2022-10-10T17:59:03;99018.50;;;20.41;55.12
21566;BME280;10943;48.738;9.320;2022-10-10T18:01:34;99017.88;;;20.25;55.48
21566;BME280;10943;48.738;9.320;2022-10-10T18:04:03;99021.66;;;20.16;56.08
21566;BME280;10943;48.738;9.320;2022-10-10T18:06:32;99023.72;;;20.10;56.22